createdAt,value
2018-07-05T00:02:23.310Z,21.72
2018-07-05T00:05:08.364Z,21.70
2018-07-05T00:07:53.561Z,21.65
2018-07-05T00:10:38.610Z,21.59
2018-07-05T00:13:23.796Z,21.59
2018-07-05T00:16:08.813Z,21.48
2018-07-05T00:18:54.082Z,21.43
2018-07-05T00:21:39.268Z,21.39
2018-07-05T00:24:24.142Z,21.38
2018-07-05T00:27:09.059Z,21.33
2018-07-05T00:29:54.315Z,21.28
2018-07-05T00:32:39.346Z,21.23
2018-07-05T00:35:24.531Z,21.18
2018-07-05T00:38:09.698Z,21.13
2018-07-05T00:40:54.959Z,21.07
2018-07-05T00:43:40.422Z,21.10
2018-07-05T00:46:25.453Z,21.07
2018-07-05T00:49:10.822Z,21.01
2018-07-05T00:51:55.758Z,20.83
2018-07-05T00:54:40.988Z,20.93
2018-07-05T00:57:26.103Z,20.91
2018-07-05T01:00:11.274Z,20.71
2018-07-05T01:02:56.553Z,20.77
2018-07-05T01:05:41.603Z,20.73
2018-07-05T01:08:26.691Z,20.80
2018-07-05T01:11:11.855Z,20.86
2018-07-05T01:13:57.034Z,20.66
2018-07-05T01:16:42.318Z,20.35
2018-07-05T01:19:27.297Z,20.31
2018-07-05T01:22:12.587Z,20.30
2018-07-05T01:24:57.872Z,20.40
2018-07-05T01:27:43.007Z,20.64
2018-07-05T01:30:28.042Z,20.75
2018-07-05T01:33:13.445Z,20.79
2018-07-05T01:35:58.554Z,20.88
2018-07-05T01:38:43.602Z,20.96
2018-07-05T01:41:28.561Z,20.99
2018-07-05T01:44:13.841Z,20.96
2018-07-05T01:46:58.968Z,20.98
2018-07-05T01:49:44.002Z,20.95
2018-07-05T01:52:29.036Z,20.95
2018-07-05T01:55:14.118Z,20.85
2018-07-05T01:57:59.178Z,20.91
2018-07-05T02:00:44.377Z,20.94
2018-07-05T02:03:29.549Z,20.98
2018-07-05T02:06:14.698Z,20.98
2018-07-05T02:08:59.805Z,20.98
2018-07-05T02:11:45.245Z,20.98
2018-07-05T02:14:30.418Z,20.97
2018-07-05T02:17:15.710Z,21.02
2018-07-05T02:20:00.878Z,20.92
2018-07-05T02:22:45.899Z,20.91
2018-07-05T02:25:30.850Z,20.86
2018-07-05T02:28:15.729Z,20.69
2018-07-05T02:31:00.852Z,20.64
2018-07-05T02:33:46.673Z,20.69
2018-07-05T02:36:34.602Z,20.76
2018-07-05T02:39:25.553Z,20.48
2018-07-05T02:42:10.554Z,20.47
2018-07-05T02:44:50.155Z,20.57
2018-07-05T02:47:35.283Z,20.62
2018-07-05T02:50:20.439Z,20.69
2018-07-05T02:53:05.637Z,20.67
2018-07-05T02:55:50.838Z,20.70
2018-07-05T02:58:36.053Z,20.74
2018-07-05T03:01:21.094Z,20.75
2018-07-05T03:04:06.496Z,20.80
2018-07-05T03:06:51.570Z,20.81
2018-07-05T03:09:36.546Z,20.85
2018-07-05T03:12:21.621Z,20.86
2018-07-05T03:15:06.797Z,20.87
2018-07-05T03:17:52.102Z,20.86
2018-07-05T03:20:37.422Z,20.90
2018-07-05T03:23:16.853Z,20.89
2018-07-05T03:26:02.064Z,20.90
2018-07-05T03:28:47.294Z,20.91
2018-07-05T03:31:32.358Z,20.93
2018-07-05T03:34:17.606Z,20.92
2018-07-05T03:37:02.991Z,20.91
2018-07-05T03:39:48.171Z,20.83
2018-07-05T03:42:33.619Z,20.82
2018-07-05T03:45:12.873Z,20.88
2018-07-05T03:47:57.936Z,20.92
2018-07-05T03:50:42.873Z,20.98
2018-07-05T03:53:28.102Z,20.69
2018-07-05T03:56:13.237Z,20.64
2018-07-05T03:58:52.540Z,20.85
2018-07-05T04:01:37.671Z,20.95
2018-07-05T04:04:22.704Z,21.03
2018-07-05T04:07:07.778Z,20.66
2018-07-05T04:09:53.086Z,20.69
2018-07-05T04:12:37.909Z,20.65
2018-07-05T04:15:23.002Z,20.78
2018-07-05T04:18:02.288Z,20.67
2018-07-05T04:20:47.406Z,20.77
2018-07-05T04:23:32.405Z,20.85
2018-07-05T04:26:17.534Z,20.88
2018-07-05T04:29:02.671Z,20.91
2018-07-05T04:31:47.830Z,20.72
2018-07-05T04:34:32.837Z,20.85
2018-07-05T04:37:18.098Z,20.81
2018-07-05T04:40:03.273Z,20.57
2018-07-05T04:42:42.701Z,20.42
2018-07-05T04:45:27.770Z,20.51
2018-07-05T04:48:12.851Z,20.59
2018-07-05T04:50:58.108Z,20.68
2018-07-05T04:53:43.337Z,20.82
2018-07-05T04:56:28.338Z,20.93
2018-07-05T04:59:07.762Z,20.92
2018-07-05T05:01:53.033Z,21.02
2018-07-05T05:04:38.154Z,21.04
2018-07-05T05:07:23.321Z,21.13
2018-07-05T05:13:06.778Z,21.18
2018-07-05T05:15:51.926Z,21.30
2018-07-05T05:18:37.246Z,21.44
2018-07-05T05:21:22.290Z,21.53
2018-07-05T05:24:07.498Z,21.59
2018-07-05T05:26:52.622Z,21.62
2018-07-05T05:29:37.959Z,21.44
2018-07-05T05:32:17.256Z,21.64
2018-07-05T05:35:02.452Z,21.81
2018-07-05T05:37:47.723Z,21.88
2018-07-05T05:40:32.815Z,21.95
2018-07-05T05:43:17.920Z,22.03
2018-07-05T05:46:02.919Z,22.08
2018-07-05T05:48:47.981Z,22.15
2018-07-05T05:51:33.213Z,22.19
2018-07-05T05:54:18.136Z,22.18
2018-07-05T05:57:03.250Z,22.19
2018-07-05T05:59:48.486Z,22.14
2018-07-05T06:02:27.994Z,22.18
2018-07-05T06:05:13.156Z,22.16
2018-07-05T06:07:58.304Z,22.14
2018-07-05T06:10:43.135Z,22.19
2018-07-05T06:13:28.350Z,22.15
2018-07-05T06:16:13.541Z,22.32
2018-07-05T06:18:58.651Z,22.33
2018-07-05T06:21:43.558Z,22.37
2018-07-05T06:24:22.888Z,22.35
2018-07-05T06:27:07.964Z,22.45
2018-07-05T06:29:53.181Z,22.49
2018-07-05T06:32:38.159Z,22.43
2018-07-05T06:35:23.346Z,22.55
2018-07-05T06:38:08.370Z,22.60
2018-07-05T06:40:47.702Z,22.66
2018-07-05T06:43:32.706Z,22.78
2018-07-05T06:46:17.647Z,22.80
2018-07-05T06:49:02.435Z,22.83
2018-07-05T06:51:47.706Z,22.86
2018-07-05T06:54:32.890Z,22.49
2018-07-05T06:57:17.935Z,22.59
2018-07-05T07:00:02.902Z,22.75
2018-07-05T07:02:48.202Z,22.87
2018-07-05T07:05:28.081Z,22.98
2018-07-05T07:08:13.151Z,22.94
2018-07-05T07:10:58.323Z,22.90
2018-07-05T07:13:43.410Z,22.96
2018-07-05T07:16:28.451Z,23.13
2018-07-05T07:19:07.749Z,23.18
2018-07-05T07:21:52.779Z,23.19
2018-07-05T07:24:37.619Z,23.24
2018-07-05T07:27:22.686Z,23.27
2018-07-05T07:30:07.608Z,23.23
2018-07-05T07:32:46.810Z,23.15
2018-07-05T07:35:31.872Z,22.97
2018-07-05T07:38:16.822Z,23.07
2018-07-05T07:41:01.995Z,23.00
2018-07-05T07:43:28.333Z,22.93
2018-07-05T07:45:54.623Z,23.05
2018-07-05T07:48:20.926Z,23.07
2018-07-05T07:50:47.195Z,23.16
2018-07-05T07:53:13.561Z,23.26
2018-07-05T07:55:39.875Z,23.28
2018-07-05T07:58:06.303Z,23.34
2018-07-05T08:00:32.996Z,23.40
2018-07-05T08:02:59.263Z,23.42
2018-07-05T08:05:25.677Z,23.36
2018-07-05T08:07:52.091Z,23.41
2018-07-05T08:10:33.350Z,23.43
2018-07-05T08:12:59.676Z,23.10
2018-07-05T08:15:25.957Z,23.04
2018-07-05T08:17:52.304Z,22.84
2018-07-05T08:20:18.681Z,23.14
2018-07-05T08:22:45.004Z,23.32
2018-07-05T08:25:11.345Z,23.30
2018-07-05T08:27:37.674Z,23.39
2018-07-05T08:30:03.975Z,23.41
2018-07-05T08:32:30.367Z,23.36
2018-07-05T08:34:56.746Z,23.46
2018-07-05T08:37:23.147Z,23.52
2018-07-05T08:39:49.526Z,23.47
2018-07-05T08:42:15.811Z,23.50
2018-07-05T08:44:42.096Z,23.49
2018-07-05T08:47:08.421Z,23.52
2018-07-05T08:49:34.901Z,23.57
2018-07-05T08:52:01.430Z,23.55
2018-07-05T08:54:27.762Z,23.73
2018-07-05T08:56:54.035Z,23.78
2018-07-05T08:59:20.375Z,23.70
2018-07-05T09:01:52.609Z,23.65
2018-07-05T09:04:18.971Z,23.76
2018-07-05T09:06:46.158Z,23.77
2018-07-05T09:09:12.445Z,23.67
2018-07-05T09:11:38.814Z,23.85
2018-07-05T09:14:05.119Z,23.83
2018-07-05T09:16:31.475Z,23.75
2018-07-05T09:18:57.787Z,23.77
2018-07-05T09:21:24.249Z,23.80
2018-07-05T09:23:50.603Z,23.72
2018-07-05T09:26:16.918Z,23.91
2018-07-05T09:28:43.574Z,23.92
2018-07-05T09:31:09.997Z,23.96
2018-07-05T09:33:36.298Z,23.94
2018-07-05T09:36:02.594Z,24.00
2018-07-05T09:38:29.512Z,23.83
2018-07-05T09:40:55.902Z,23.79
2018-07-05T09:43:22.217Z,23.85
2018-07-05T09:45:48.870Z,23.95
2018-07-05T09:48:15.163Z,24.11
2018-07-05T09:50:41.452Z,24.09
2018-07-05T09:53:07.774Z,23.93
2018-07-05T09:55:34.105Z,23.93
2018-07-05T09:58:00.430Z,24.08
2018-07-05T10:01:03.208Z,23.97
2018-07-05T10:03:29.485Z,23.96
2018-07-05T10:05:55.808Z,23.84
2018-07-05T10:08:22.194Z,23.83
2018-07-05T10:10:48.492Z,23.86
2018-07-05T10:13:15.073Z,23.93
2018-07-05T10:15:41.765Z,23.92
2018-07-05T10:18:08.030Z,23.87
2018-07-05T10:20:34.348Z,24.06
2018-07-05T10:23:00.773Z,24.07
2018-07-05T10:25:27.120Z,23.92
2018-07-05T10:27:53.455Z,23.93
2018-07-05T10:30:38.609Z,24.02
2018-07-05T10:33:23.549Z,24.08
2018-07-05T10:35:49.826Z,23.96
2018-07-05T10:38:16.172Z,24.07
2018-07-05T10:41:01.237Z,24.04
2018-07-05T10:43:46.814Z,23.98
2018-07-05T10:46:31.857Z,24.06
2018-07-05T10:49:17.061Z,24.11
2018-07-05T10:52:02.202Z,23.93
2018-07-05T10:54:47.301Z,23.99
2018-07-05T10:57:32.421Z,24.07
2018-07-05T11:00:17.634Z,24.01
2018-07-05T11:03:02.648Z,23.99
2018-07-05T11:05:47.807Z,23.97
2018-07-05T11:08:33.018Z,23.95
2018-07-05T11:11:18.151Z,24.11
2018-07-05T11:14:03.310Z,23.97
2018-07-05T11:16:48.443Z,23.86
2018-07-05T11:19:33.630Z,24.02
2018-07-05T11:22:19.070Z,23.91
2018-07-05T11:25:04.175Z,23.93
2018-07-05T11:27:49.207Z,23.92
2018-07-05T11:30:34.356Z,23.88
2018-07-05T11:33:19.446Z,23.95
2018-07-05T11:36:04.987Z,23.79
2018-07-05T11:38:50.026Z,23.70
2018-07-05T11:41:36.080Z,23.69
2018-07-05T11:44:21.230Z,23.49
2018-07-05T11:47:06.498Z,23.53
2018-07-05T11:49:51.722Z,23.50
2018-07-05T11:52:37.012Z,23.45
2018-07-05T11:55:22.141Z,23.35
2018-07-05T11:58:07.050Z,23.36
2018-07-05T12:00:52.107Z,23.18
2018-07-05T12:03:37.258Z,23.27
2018-07-05T12:06:22.416Z,23.28
2018-07-05T12:09:01.791Z,23.36
2018-07-05T12:11:47.071Z,23.40
2018-07-05T12:14:32.322Z,23.35
2018-07-05T12:17:17.450Z,23.41
2018-07-05T12:20:02.427Z,23.56
2018-07-05T12:22:47.643Z,23.48
2018-07-05T12:25:33.532Z,23.47
2018-07-05T12:28:18.686Z,23.47
2018-07-05T12:31:03.714Z,23.45
2018-07-05T12:33:48.854Z,23.01
2018-07-05T12:36:34.100Z,23.01
2018-07-05T12:39:19.519Z,23.27
2018-07-05T12:42:04.591Z,23.24
2018-07-05T12:44:43.982Z,23.31
2018-07-05T12:47:29.251Z,23.35
2018-07-05T12:50:14.371Z,23.40
2018-07-05T12:52:59.493Z,23.40
2018-07-05T12:55:46.032Z,23.39
2018-07-05T12:58:31.152Z,23.45
2018-07-05T13:01:16.168Z,23.32
2018-07-05T13:04:03.382Z,23.17
2018-07-05T13:06:48.442Z,23.23
2018-07-05T13:09:33.751Z,23.29
2018-07-05T13:12:19.139Z,23.27
2018-07-05T13:15:04.390Z,23.36
2018-07-05T13:17:49.646Z,23.32
2018-07-05T13:20:34.863Z,23.52
2018-07-05T13:23:20.057Z,23.56
2018-07-05T13:25:59.378Z,23.64
2018-07-05T13:28:44.514Z,23.60
2018-07-05T13:31:29.682Z,23.55
2018-07-05T13:34:14.778Z,23.42
2018-07-05T13:36:59.810Z,23.63
2018-07-05T13:39:45.519Z,23.64
2018-07-05T13:42:24.822Z,23.55
2018-07-05T13:45:09.927Z,23.65
2018-07-05T13:47:55.134Z,23.65
2018-07-05T13:50:40.429Z,23.64
2018-07-05T13:53:25.721Z,23.68
2018-07-05T13:56:10.818Z,23.62
2018-07-05T13:58:55.924Z,23.62
2018-07-05T14:01:41.115Z,23.80
2018-07-05T14:04:26.170Z,23.78
2018-07-05T14:07:11.763Z,23.78
2018-07-05T14:09:57.128Z,23.64
2018-07-05T14:12:42.197Z,23.63
2018-07-05T14:15:28.502Z,23.48
2018-07-05T14:18:13.418Z,23.58
2018-07-05T14:20:58.618Z,23.58
2018-07-05T14:23:43.661Z,23.58
2018-07-05T14:26:28.831Z,23.35
2018-07-05T14:29:13.870Z,23.54
2018-07-05T14:31:59.064Z,23.59
2018-07-05T14:34:44.113Z,23.51
2018-07-05T14:37:29.444Z,23.55
2018-07-05T14:40:14.512Z,23.57
2018-07-05T14:42:59.680Z,23.58
2018-07-05T14:45:45.446Z,23.45
2018-07-05T14:48:30.549Z,23.58
2018-07-05T14:51:15.716Z,23.59
2018-07-05T14:54:00.813Z,23.38
2018-07-05T14:56:46.434Z,23.53
2018-07-05T14:59:31.566Z,23.69
2018-07-05T15:02:16.919Z,23.86
2018-07-05T15:05:01.927Z,23.91
2018-07-05T15:07:47.162Z,23.87
2018-07-05T15:10:39.695Z,24.05
2018-07-05T15:13:25.017Z,24.22
2018-07-05T15:16:10.168Z,24.11
2018-07-05T15:18:55.236Z,24.05
2018-07-05T15:21:40.486Z,24.24
2018-07-05T15:24:25.486Z,23.99
2018-07-05T15:27:10.586Z,23.93
2018-07-05T15:29:56.427Z,23.89
2018-07-05T15:32:41.603Z,23.96
2018-07-05T15:35:26.800Z,24.15
2018-07-05T15:38:11.990Z,24.24
2018-07-05T15:40:56.935Z,24.02
2018-07-05T15:43:41.874Z,24.22
2018-07-05T15:46:27.031Z,24.36
2018-07-05T15:49:12.177Z,24.18
2018-07-05T15:51:57.115Z,24.26
2018-07-05T15:54:41.994Z,24.38
2018-07-05T15:57:27.279Z,24.38
2018-07-05T16:00:12.493Z,24.18
2018-07-05T16:02:57.563Z,24.16
2018-07-05T16:05:42.516Z,24.25
2018-07-05T16:08:27.850Z,24.18
2018-07-05T16:11:13.109Z,24.00
2018-07-05T16:13:58.212Z,24.13
2018-07-05T16:16:43.110Z,24.17
2018-07-05T16:19:28.186Z,24.13
2018-07-05T16:22:13.230Z,24.03
2018-07-05T16:24:58.343Z,24.05
2018-07-05T16:27:43.305Z,24.02
2018-07-05T16:30:28.304Z,23.98
2018-07-05T16:33:13.367Z,24.01
2018-07-05T16:35:58.568Z,24.15
2018-07-05T16:38:43.686Z,23.95
2018-07-05T16:41:28.762Z,24.02
2018-07-05T16:44:13.950Z,24.04
2018-07-05T16:46:59.114Z,24.01
2018-07-05T16:49:44.277Z,23.90
2018-07-05T16:52:29.381Z,23.99
2018-07-05T16:55:14.557Z,24.06
2018-07-05T16:57:59.577Z,23.96
2018-07-05T17:00:44.747Z,23.77
2018-07-05T17:03:29.667Z,23.94
2018-07-05T17:06:14.830Z,24.04
2018-07-05T17:08:59.986Z,24.17
2018-07-05T17:11:44.948Z,24.24
2018-07-05T17:14:30.210Z,24.27
2018-07-05T17:17:15.459Z,24.21
2018-07-05T17:20:00.547Z,24.15
2018-07-05T17:22:45.450Z,24.13
2018-07-05T17:25:30.663Z,24.18
2018-07-05T17:28:15.962Z,24.10
2018-07-05T17:31:00.954Z,24.08
2018-07-05T17:33:45.986Z,24.04
2018-07-05T17:36:31.168Z,24.07
2018-07-05T17:39:16.344Z,24.06
2018-07-05T17:42:01.567Z,24.00
2018-07-05T17:44:46.551Z,23.97
2018-07-05T17:47:31.523Z,23.94
2018-07-05T17:50:16.750Z,23.90
2018-07-05T17:53:01.812Z,23.88
2018-07-05T17:55:46.790Z,23.89
2018-07-05T17:58:31.790Z,23.79
2018-07-05T18:01:16.783Z,23.89
2018-07-05T18:04:01.989Z,23.92
2018-07-05T18:06:47.092Z,23.90
2018-07-05T18:09:31.964Z,23.82
2018-07-05T18:12:17.151Z,23.70
2018-07-05T18:15:02.347Z,23.60
2018-07-05T18:17:47.478Z,23.55
2018-07-05T18:20:32.469Z,23.50
2018-07-05T18:23:17.470Z,23.44
2018-07-05T18:26:02.382Z,23.44
2018-07-05T18:28:47.572Z,23.41
2018-07-05T18:31:32.575Z,23.37
2018-07-05T18:34:17.720Z,23.36
2018-07-05T18:37:02.924Z,23.36
2018-07-05T18:39:48.126Z,23.28
2018-07-05T18:42:33.232Z,23.25
2018-07-05T18:45:18.337Z,23.12
2018-07-05T18:48:03.481Z,23.15
2018-07-05T18:50:48.391Z,23.09
2018-07-05T18:53:33.426Z,23.12
2018-07-05T18:56:18.734Z,23.08
2018-07-05T18:59:03.839Z,23.00
2018-07-05T19:01:48.887Z,22.95
2018-07-05T19:04:33.934Z,22.89
2018-07-05T19:07:19.067Z,22.95
2018-07-05T19:13:02.107Z,22.82
2018-07-05T19:15:47.623Z,22.75
2018-07-05T19:18:32.741Z,22.72
2018-07-05T19:21:17.922Z,22.68
2018-07-05T19:23:57.252Z,22.62
2018-07-05T19:26:42.320Z,22.58
2018-07-05T19:29:27.531Z,22.47
2018-07-05T19:32:12.953Z,22.44
2018-07-05T19:34:58.205Z,22.27
2018-07-05T19:37:44.269Z,22.12
2018-07-05T19:40:30.072Z,21.90
2018-07-05T19:43:15.311Z,22.02
2018-07-05T19:45:54.686Z,21.91
2018-07-05T19:48:39.710Z,22.01
2018-07-05T19:51:24.738Z,22.13
2018-07-05T19:54:09.770Z,22.13
2018-07-05T19:56:55.074Z,22.15
2018-07-05T19:59:40.302Z,22.14
2018-07-05T20:02:25.590Z,22.10
2018-07-05T20:05:10.718Z,22.04
2018-07-05T20:07:55.827Z,21.84
2018-07-05T20:10:42.038Z,21.93
2018-07-05T20:13:27.396Z,22.00
2018-07-05T20:16:12.522Z,22.01
2018-07-05T20:18:58.032Z,21.98
2018-07-05T20:21:43.178Z,21.98
2018-07-05T20:24:28.401Z,21.96
2018-07-05T20:27:13.649Z,21.94
2018-07-05T20:29:58.943Z,21.91
2018-07-05T20:32:43.951Z,21.87
2018-07-05T20:35:29.085Z,21.86
2018-07-05T20:38:14.223Z,21.81
2018-07-05T20:40:59.291Z,21.77
2018-07-05T20:43:44.666Z,21.70
2018-07-05T20:46:29.762Z,21.65
2018-07-05T20:49:09.199Z,21.64
2018-07-05T20:51:54.454Z,21.65
2018-07-05T20:54:39.665Z,21.52
2018-07-05T20:57:24.790Z,21.49
2018-07-05T21:00:09.833Z,21.47
2018-07-05T21:02:54.917Z,21.39
2018-07-05T21:05:40.052Z,21.39
2018-07-05T21:08:25.317Z,21.11
2018-07-05T21:11:10.374Z,21.16
2018-07-05T21:13:49.817Z,20.85
2018-07-05T21:16:34.997Z,20.54
2018-07-05T21:19:20.213Z,20.84
2018-07-05T21:22:05.383Z,21.01
2018-07-05T21:24:44.549Z,21.04
2018-07-05T21:27:30.386Z,21.05
2018-07-05T21:30:15.724Z,21.09
2018-07-05T21:33:00.790Z,21.05
2018-07-05T21:35:45.930Z,21.04
2018-07-05T21:38:31.306Z,21.06
2018-07-05T21:41:16.534Z,21.09
2018-07-05T21:43:55.686Z,21.10
2018-07-05T21:46:40.853Z,21.16
2018-07-05T21:49:26.182Z,21.17
2018-07-05T21:52:11.454Z,20.99
2018-07-05T21:54:56.738Z,20.90
2018-07-05T21:57:41.810Z,20.96
2018-07-05T22:00:27.139Z,21.02
2018-07-05T22:03:12.229Z,21.03
2018-07-05T22:05:57.442Z,20.88
2018-07-05T22:08:42.576Z,20.75
2018-07-05T22:11:27.679Z,20.82
2018-07-05T22:14:12.880Z,20.85
2018-07-05T22:17:03.882Z,20.82
2018-07-05T22:19:54.778Z,20.83
2018-07-05T22:22:45.991Z,20.82
2018-07-05T22:25:37.048Z,20.83
2018-07-05T22:28:28.253Z,20.84
2018-07-05T22:31:19.354Z,20.71
2018-07-05T22:33:58.550Z,20.75
2018-07-05T22:36:43.631Z,20.72
2018-07-05T22:39:28.877Z,20.74
2018-07-05T22:42:14.026Z,20.72
2018-07-05T22:44:53.281Z,20.64
2018-07-05T22:47:38.272Z,20.60
2018-07-05T22:50:23.432Z,20.64
2018-07-05T22:53:08.586Z,20.60
2018-07-05T22:55:53.922Z,20.53
2018-07-05T22:58:33.159Z,20.52
2018-07-05T23:01:18.302Z,20.48
2018-07-05T23:04:03.486Z,20.15
2018-07-05T23:06:48.563Z,20.10
2018-07-05T23:09:33.714Z,20.00
2018-07-05T23:12:18.837Z,20.00
2018-07-05T23:15:03.863Z,19.78
2018-07-05T23:17:48.822Z,19.85
2018-07-05T23:20:33.879Z,19.86
2018-07-05T23:23:19.098Z,19.90
2018-07-05T23:26:04.209Z,19.84
2018-07-05T23:28:49.641Z,19.64
2018-07-05T23:31:34.783Z,19.59
2018-07-05T23:34:19.945Z,19.69
2018-07-05T23:37:04.996Z,19.59
2018-07-05T23:39:50.285Z,19.74
2018-07-05T23:42:29.606Z,19.66
2018-07-05T23:45:14.755Z,19.59
2018-07-05T23:47:59.806Z,19.56
2018-07-05T23:50:44.847Z,19.59
2018-07-05T23:53:30.102Z,19.59
2018-07-05T23:56:15.347Z,19.52
2018-07-05T23:59:00.559Z,19.49
